M I D A S
Marine Information and Data Acquisition System
Tripno 767 of the Zeeleeuw from 2004-08-25 06:24:38 to 2004-08-25 13:28:47
Back to CruiseResearch ActivitiesStationsMapUnderway DataData graphs

EquipmentUnitsComment
TimeDGPSUTC
LatitudeDGPSDM.mWGS84
LongitudeDGPSDM.mWGS84
HeadingGyrodeg 
SOGDGPSknotsSpeed over ground
COGDGPSdegCourse over ground
DepthEcho soundermeters200 kHz
Missing or incorrect values are displayed as -999
Navigation data collected by the RV Zeeleeuw from 2004-08-25 06:24:38 to 2004-08-25 13:28:47
                                                                                    Next 1000 lines
Time Latitude Longitude Heading SOG COG Depth
2004-08-25 06:24:46 51°13.596 2°56.115 126.9   65 10.7
2004-08-25 06:24:52 51°13.596 2°56.115 126.8   57 10.6
2004-08-25 06:24:57 51°13.596 2°56.115 126.4   157 10.7
2004-08-25 06:25:02 51°13.595 2°56.115 125.8 0.1 187 10.7
2004-08-25 06:25:06 51°13.595 2°56.114 125.2   180 10.6
2004-08-25 06:25:10 51°13.596 2°56.114 124.8   48 10.6
2004-08-25 06:25:16 51°13.596 2°56.114 124.7 0.1 25 10.7
2004-08-25 06:25:22 51°13.596 2°56.114 125.1   350 10.7
2004-08-25 06:25:26 51°13.596 2°56.114 126.1 0.1 218 10.7
2004-08-25 06:25:32 51°13.595 2°56.114 127 0.1 221 10.7
2004-08-25 06:25:36 51°13.595 2°56.114 127.7   144 10.7
2004-08-25 06:25:41 51°13.595 2°56.114 128.1 0.1 55 10.7
2004-08-25 06:25:46 51°13.595 2°56.114 128.1 0.1 94 10.7
2004-08-25 06:25:52 51°13.595 2°56.114 127.7 0.1 87 10.6
2004-08-25 06:25:57 51°13.595 2°56.114 126.3   178 10.6
2004-08-25 06:26:02 51°13.595 2°56.114 125.4 0.1 167 10.6
2004-08-25 06:26:06 51°13.595 2°56.114 124.4 0.1 176 10.7
2004-08-25 06:26:10 51°13.595 2°56.114 123.3 0.1 187 10.7
2004-08-25 06:26:14 51°13.595 2°56.114 122 0.1 181 10.8
2004-08-25 06:26:22 51°13.595 2°56.114 120.8 0.1 187 10.7
2004-08-25 06:26:27 51°13.595 2°56.114 119.4 0.1 184 10.7
2004-08-25 06:26:30 51°13.595 2°56.114 118.1 0.1 185 10.8
2004-08-25 06:26:37 51°13.595 2°56.114 116.6 0.1 216 10.8
2004-08-25 06:26:42 51°13.595 2°56.113 115.4 0.4 295 10.8
2004-08-25 06:26:46 51°13.595 2°56.112 114.6 0.8 296 10.8
2004-08-25 06:26:52 51°13.596 2°56.109 114.2 1.1 292 10.8
2004-08-25 06:26:57 51°13.597 2°56.106 113.8 1.6 299 10.7
2004-08-25 06:27:02 51°13.598 2°56.102 113.7 2 297 10.7
2004-08-25 06:27:07 51°13.6 2°56.098 113.6 2.2 298 -999
2004-08-25 06:27:12 51°13.601 2°56.093 113.6 2.3 297 -999
2004-08-25 06:27:18 51°13.603 2°56.087 113.3 2.5 298 -999
2004-08-25 06:27:23 51°13.605 2°56.081 112.6 2.7 294 -999
2004-08-25 06:27:28 51°13.606 2°56.075 111.7 2.9 294 -999
2004-08-25 06:27:32 51°13.608 2°56.07 110.7 3.2 291 -999
2004-08-25 06:27:38 51°13.609 2°56.062 109.4 3.2 291 -999
2004-08-25 06:27:43 51°13.611 2°56.056 107.8 2.9 286 -999
2004-08-25 06:27:48 51°13.612 2°56.051 105.8 2.4 287 -999
2004-08-25 06:27:52 51°13.612 2°56.05 104.4 0.9 295 -999
2004-08-25 06:27:58 51°13.612 2°56.051 104.3 0.3 65 -999
2004-08-25 06:28:03 51°13.612 2°56.053 107 1.1 95 -999
2004-08-25 06:28:08 51°13.611 2°56.055 111 1 107 -999
2004-08-25 06:28:12 51°13.611 2°56.056 113.8 0.7 96 -999
2004-08-25 06:28:18 51°13.612 2°56.056 115.6 0.2 26 -999
2004-08-25 06:28:23 51°13.613 2°56.055 117.4 0.7 314 11.6
2004-08-25 06:28:27 51°13.613 2°56.053 118.8 1.1 301 11.7
2004-08-25 06:28:30 51°13.614 2°56.052 119.7 1.5 308 11.6
2004-08-25 06:28:37 51°13.616 2°56.047 120.2 2 301 11.8
2004-08-25 06:28:43 51°13.618 2°56.042 120.4 2.4 302 -999
2004-08-25 06:28:48 51°13.62 2°56.036 120.2 2.6 301 -999
2004-08-25 06:28:53 51°13.622 2°56.031 119.8 2.8 299 -999
2004-08-25 06:28:58 51°13.624 2°56.025 119.8 2.9 300 -999
2004-08-25 06:29:03 51°13.626 2°56.018 119.8 3.2 299 -999
2004-08-25 06:29:07 51°13.628 2°56.013 120.1 3.3 300 -999
2004-08-25 06:29:11 51°13.63 2°56.008 120.4 3.4 299 -999
2004-08-25 06:29:18 51°13.633 2°55.998 120.8 3.6 300 -999
2004-08-25 06:29:23 51°13.636 2°55.991 121.3 3.8 299 -999
2004-08-25 06:29:28 51°13.638 2°55.983 121.5 4 300 -999
2004-08-25 06:29:31 51°13.64 2°55.979 121.5 4.1 300 -999
2004-08-25 06:29:38 51°13.644 2°55.967 121.5 4.3 300 -999
2004-08-25 06:29:43 51°13.647 2°55.959 121 4.4 299 -999
2004-08-25 06:29:47 51°13.649 2°55.952 119.7 4.4 298 -999
2004-08-25 06:29:51 51°13.652 2°55.945 118.3 4.5 297 -999
2004-08-25 06:29:58 51°13.656 2°55.932 116.5 4.5 296 -999
2004-08-25 06:30:03 51°13.658 2°55.923 114.7 4.6 294 -999
2004-08-25 06:30:08 51°13.661 2°55.913 112.8 4.6 293 -999
2004-08-25 06:30:12 51°13.662 2°55.905 110.7 4.7 291 -999
2004-08-25 06:30:18 51°13.665 2°55.894 109.1 4.7 289 -999
2004-08-25 06:30:22 51°13.667 2°55.886 106.3 4.7 286 -999
2004-08-25 06:30:28 51°13.668 2°55.873 103.7 4.7 285 -999
2004-08-25 06:30:33 51°13.67 2°55.863 101 4.8 282 -999
2004-08-25 06:30:38 51°13.671 2°55.853 98.2 4.6 279 -999
2004-08-25 06:30:43 51°13.671 2°55.844 95.5 4.3 276 -999
2004-08-25 06:30:47 51°13.671 2°55.836 92.8 4.2 274 -999
2004-08-25 06:30:52 51°13.672 2°55.827 90.4 4 272 -999
2004-08-25 06:30:58 51°13.672 2°55.817 88.7 3.9 271 13.2
2004-08-25 06:31:02 51°13.672 2°55.81 86.7 3.8 270 -999
2004-08-25 06:31:07 51°13.672 2°55.802 85.1 3.7 269 12.9
2004-08-25 06:31:10 51°13.672 2°55.797 83.7 3.6 268 12.3
2004-08-25 06:31:17 51°13.671 2°55.787 82 3.5 266 12.3
2004-08-25 06:31:22 51°13.671 2°55.779 79.5 3.3 264 12.3
2004-08-25 06:31:27 51°13.67 2°55.772 77 3.1 262 12.8
2004-08-25 06:31:30 51°13.67 2°55.769 74.7 2.7 261 -999
2004-08-25 06:31:36 51°13.67 2°55.764 71.7 2.1 262 13.2
2004-08-25 06:31:42 51°13.67 2°55.761 67.4 0.7 301 13.3
2004-08-25 06:31:47 51°13.671 2°55.761 61.4 0.8 1 13.5
2004-08-25 06:31:50 51°13.672 2°55.762 53.3 0.8 1 13.8
2004-08-25 06:31:56 51°13.675 2°55.764 43.8 2.1 21 14.6
2004-08-25 06:32:02 51°13.68 2°55.766 33.4 3.1 12 14.8
2004-08-25 06:32:07 51°13.685 2°55.767 23.3 3.5 4 16.1
2004-08-25 06:32:11 51°13.69 2°55.766 13.5 3.9 358 16.3
2004-08-25 06:32:14 51°13.693 2°55.765 3.7 4.2 351 17
2004-08-25 06:32:22 51°13.703 2°55.76 354.1 4.9 338 17
2004-08-25 06:32:26 51°13.708 2°55.757 344.6 5 331 16.1
2004-08-25 06:32:35 51°13.718 2°55.746 331.6 5 327 13.7
2004-08-25 06:32:42 51°13.727 2°55.735 329 5.6 323 13
2004-08-25 06:32:47 51°13.733 2°55.727 327.8 6 323 12.6
2004-08-25 06:32:52 51°13.741 2°55.719 327.8 6.4 323 12.4
2004-08-25 06:32:57 51°13.748 2°55.71 329.3 6.7 324 12
2004-08-25 06:33:02 51°13.756 2°55.701 330.9 7.2 325 12.2
2004-08-25 06:33:06 51°13.763 2°55.693 331.3 7.5 326 12
2004-08-25 06:33:09 51°13.768 2°55.688 331.9 7.7 327 12.2
2004-08-25 06:33:15 51°13.779 2°55.676 332.6 7.9 327 12.3
2004-08-25 06:33:21 51°13.791 2°55.665 333.3 8.3 328 12.5
2004-08-25 06:33:26 51°13.801 2°55.655 333.5 8.4 328 13.2
2004-08-25 06:33:30 51°13.809 2°55.647 333.8 8.6 329 13.2
2004-08-25 06:33:36 51°13.822 2°55.635 334.5 8.7 329 13.4
2004-08-25 06:33:42 51°13.834 2°55.624 335.6 8.9 332 13.2
2004-08-25 06:33:46 51°13.843 2°55.617 337.8 9 334 13.5
2004-08-25 06:33:52 51°13.857 2°55.607 339 9 334 13.1
2004-08-25 06:33:57 51°13.868 2°55.598 339.6 9.1 334 13.4
2004-08-25 06:34:02 51°13.88 2°55.59 339.9 9.2 336 12.6
2004-08-25 06:34:07 51°13.892 2°55.581 340.6 9.3 336 12.4
2004-08-25 06:34:12 51°13.903 2°55.572 340.4 9.3 335 12.3
2004-08-25 06:34:17 51°13.915 2°55.564 340.3 9.4 336 12
2004-08-25 06:34:22 51°13.927 2°55.555 340.5 9.5 336 12.6
2004-08-25 06:34:26 51°13.937 2°55.548 341 9.5 337 13
2004-08-25 06:34:30 51°13.947 2°55.542 341.2 9.5 336 13.4
2004-08-25 06:34:37 51°13.964 2°55.53 341.9 9.5 338 13.6
2004-08-25 06:34:42 51°13.976 2°55.522 342.3 9.6 336 14.1
2004-08-25 06:34:46 51°13.985 2°55.515 341.1 9.6 336 14.5
2004-08-25 06:34:50 51°13.995 2°55.508 340.8 9.6 336 14.4
2004-08-25 06:34:57 51°14.012 2°55.496 340.8 9.6 336 13.5
2004-08-25 06:35:02 51°14.025 2°55.488 341.2 9.7 337 13
2004-08-25 06:35:06 51°14.034 2°55.481 341.3 9.7 336 13
2004-08-25 06:35:12 51°14.049 2°55.47 341.1 9.7 336 13.3
2004-08-25 06:35:14 51°14.054 2°55.467 341 9.7 336 13.4
2004-08-25 06:35:22 51°14.074 2°55.453 341.3 9.7 337 13.4
2004-08-25 06:35:27 51°14.086 2°55.445 341.6 9.7 337 13.4
2004-08-25 06:35:30 51°14.094 2°55.44 341.6 9.8 337 13.5
2004-08-25 06:35:36 51°14.109 2°55.429 341.6 10 336 13.7
2004-08-25 06:35:42 51°14.125 2°55.418 341.4 10.4 336 13.9
2004-08-25 06:35:46 51°14.136 2°55.409 340.9 10.6 334 14.1
2004-08-25 06:35:50 51°14.146 2°55.401 338.6 10.7 332 14.3
2004-08-25 06:35:56 51°14.162 2°55.387 337.1 10.8 331 14.3
2004-08-25 06:36:02 51°14.178 2°55.373 336.6 11 330 14.2
2004-08-25 06:36:07 51°14.191 2°55.359 335.3 11.1 328 14.1
2004-08-25 06:36:11 51°14.201 2°55.349 333.2 11.3 327 14.1
2004-08-25 06:36:17 51°14.217 2°55.331 331.3 11.4 325 14
2004-08-25 06:36:22 51°14.229 2°55.315 329.3 11.6 322 14.2
2004-08-25 06:36:26 51°14.239 2°55.302 327.1 11.6 320 14.3
2004-08-25 06:36:31 51°14.251 2°55.285 324.7 11.7 318 13.9
2004-08-25 06:36:34 51°14.258 2°55.274 322.3 11.7 315 14.3
2004-08-25 06:36:42 51°14.276 2°55.244 320 11.8 313 13.9
2004-08-25 06:36:46 51°14.285 2°55.228 317.6 11.9 311 13.8
2004-08-25 06:36:52 51°14.298 2°55.204 316.3 12 311 13.9
2004-08-25 06:36:57 51°14.309 2°55.184 315.9 12 311 13.7
2004-08-25 06:37:03 51°14.322 2°55.159 316 12.1 310 13.7
2004-08-25 06:37:07 51°14.33 2°55.142 314.6 12.2 308 13.6
2004-08-25 06:37:12 51°14.341 2°55.121 312.6 12.2 308 13.5
2004-08-25 06:37:17 51°14.351 2°55.099 311.7 12.3 307 13.1
2004-08-25 06:37:22 51°14.361 2°55.078 311.6 12.2 309 13.3
2004-08-25 06:37:27 51°14.372 2°55.057 312.6 12.2 310 13.6
2004-08-25 06:37:30 51°14.379 2°55.045 313.4 12.2 311 13.7
2004-08-25 06:37:37 51°14.395 2°55.018 315.2 12.3 315 13.6
2004-08-25 06:37:42 51°14.408 2°54.999 316.1 12.2 317 13.8
2004-08-25 06:37:46 51°14.418 2°54.985 317.6 12.3 320 13.5
2004-08-25 06:37:50 51°14.428 2°54.971 319.5 12.3 320 13.2
2004-08-25 06:37:57 51°14.447 2°54.947 320.1 12.4 321 13.4
2004-08-25 06:38:02 51°14.46 2°54.928 318.6 12.7 318 13.1
2004-08-25 06:38:07 51°14.473 2°54.91 317.8 12.7 319 13.1
2004-08-25 06:38:10 51°14.481 2°54.898 317.7 12.8 318 12.7
2004-08-25 06:38:17 51°14.501 2°54.872 317.6 12.9 319 12.8
2004-08-25 06:38:22 51°14.514 2°54.853 317.7 13 319 12.6
2004-08-25 06:38:27 51°14.528 2°54.835 318.6 13.1 319 12.5
2004-08-25 06:38:30 51°14.536 2°54.823 319.2 13.2 319 12.6
2004-08-25 06:38:37 51°14.556 2°54.797 319.6 13.2 320 12.5
2004-08-25 06:38:42 51°14.57 2°54.779 321 13.3 321 12.5
2004-08-25 06:38:47 51°14.585 2°54.761 321.3 13.3 321 12.5
2004-08-25 06:38:51 51°14.596 2°54.746 322.2 13.4 323 12.4
2004-08-25 06:38:57 51°14.614 2°54.725 322.6 13.4 323 12.4
2004-08-25 06:39:02 51°14.629 2°54.707 322.7 13.4 323 12.2
2004-08-25 06:39:06 51°14.641 2°54.693 322.8 13.4 324 12.3
2004-08-25 06:39:09 51°14.65 2°54.682 323.2 13.4 323 12.2
2004-08-25 06:39:17 51°14.674 2°54.654 323.3 13.4 324 12.3
2004-08-25 06:39:22 51°14.689 2°54.637 323.4 13.4 324 12.3
2004-08-25 06:39:27 51°14.704 2°54.619 323.4 13.4 324 12.3
2004-08-25 06:39:30 51°14.713 2°54.609 323.4 13.4 323 12.4
2004-08-25 06:39:37 51°14.734 2°54.584 323.3 13.4 323 12.3
2004-08-25 06:39:42 51°14.748 2°54.566 323.1 13.4 323 12.3
2004-08-25 06:39:46 51°14.76 2°54.552 323.2 13.4 323 12.3
2004-08-25 06:39:51 51°14.775 2°54.534 323.2 13.3 324 12.1
2004-08-25 06:39:54 51°14.784 2°54.524 323.6 13.4 324 12.2
2004-08-25 06:40:03 51°14.811 2°54.492 323.7 13.4 323 12.2
2004-08-25 06:40:07 51°14.823 2°54.478 323.3 13.3 323 12.3
2004-08-25 06:40:12 51°14.838 2°54.461 322.9 13.4 323 12.2
2004-08-25 06:40:14 51°14.844 2°54.454 322.9 13.4 323 12.2
2004-08-25 06:40:21 51°14.865 2°54.429 323.2 13.4 325 12
2004-08-25 06:40:26 51°14.88 2°54.412 324.1 13.3 325 11.8
2004-08-25 06:40:30 51°14.893 2°54.399 324.9 13.3 326 11.6
2004-08-25 06:40:37 51°14.914 2°54.376 325.8 13.3 326 11.7
2004-08-25 06:40:42 51°14.93 2°54.36 326.4 13.3 327 11.4
2004-08-25 06:40:46 51°14.942 2°54.347 326.6 13.3 327 11.4
2004-08-25 06:40:50 51°14.955 2°54.334 327.1 13.4 327 11.3
2004-08-25 06:40:56 51°14.973 2°54.315 327.1 13.3 326 11.2
2004-08-25 06:41:02 51°14.992 2°54.294 326.7 13.4 326 11.3
2004-08-25 06:41:06 51°15.004 2°54.281 326.2 13.4 326 11.3
2004-08-25 06:41:10 51°15.016 2°54.268 326.6 13.4 326 11.3
2004-08-25 06:41:16 51°15.035 2°54.248 326.6 13.5 326 11.2
2004-08-25 06:41:22 51°15.054 2°54.228 326.7 13.5 327 11.1
2004-08-25 06:41:27 51°15.069 2°54.212 326.8 13.5 327 11.4
2004-08-25 06:41:29 51°15.076 2°54.206 327.3 13.5 327 11.5
2004-08-25 06:41:35 51°15.095 2°54.186 327.3 13.5 328 11.4
2004-08-25 06:41:42 51°15.117 2°54.164 327.8 13.6 328 11.4
2004-08-25 06:41:47 51°15.133 2°54.148 327.8 13.6 327 11.6
2004-08-25 06:41:50 51°15.143 2°54.138 327.6 13.6 328 11.6
2004-08-25 06:41:56 51°15.162 2°54.119 327.5 13.5 327 11.6
2004-08-25 06:42:02 51°15.181 2°54.1 327.8 13.5 327 11.9
2004-08-25 06:42:06 51°15.193 2°54.087 327.5 13.5 327 11.8
2004-08-25 06:42:10 51°15.206 2°54.074 327.3 13.5 327 11.9
2004-08-25 06:42:16 51°15.225 2°54.054 327.4 13.6 328 11.9
2004-08-25 06:42:22 51°15.244 2°54.036 328.4 13.6 329 12
2004-08-25 06:42:27 51°15.261 2°54.02 329.5 13.6 329 12
2004-08-25 06:42:29 51°15.267 2°54.014 329.7 13.6 329 12.1
2004-08-25 06:42:35 51°15.287 2°53.996 329.8 13.5 329 12
2004-08-25 06:42:42 51°15.31 2°53.975 330.6 13.6 329 12.1
2004-08-25 06:42:46 51°15.323 2°53.963 330.2 13.7 331 12.3
2004-08-25 06:42:52 51°15.342 2°53.945 331 13.7 330 12.3
2004-08-25 06:42:56 51°15.355 2°53.933 330.3 13.6 329 12.5
2004-08-25 06:43:02 51°15.375 2°53.915 330.2 13.6 330 12.4
2004-08-25 06:43:06 51°15.388 2°53.903 330.4 13.6 331 12.5
2004-08-25 06:43:09 51°15.398 2°53.894 330.7 13.6 331 12.6
2004-08-25 06:43:17 51°15.424 2°53.87 330.7 13.6 331 12.7
2004-08-25 06:43:22 51°15.441 2°53.855 330.9 13.6 330 12.8
2004-08-25 06:43:27 51°15.457 2°53.84 330.8 13.6 331 12.7
2004-08-25 06:43:32 51°15.474 2°53.825 330.7 13.5 330 12.8
2004-08-25 06:43:40 51°15.5 2°53.802 330.9 13.6 330 12.7
2004-08-25 06:43:42 51°15.506 2°53.796 331.1 13.5 331 12.9
2004-08-25 06:43:47 51°15.523 2°53.781 331 13.5 331 12.9
2004-08-25 06:43:53 51°15.542 2°53.763 330.5 13.6 329 13.2
2004-08-25 06:43:57 51°15.555 2°53.751 330.6 13.5 330 13.1
2004-08-25 06:44:02 51°15.572 2°53.736 330.2 13.6 330 13.3
2004-08-25 06:44:06 51°15.585 2°53.724 330.3 13.6 330 13.3
2004-08-25 06:44:13 51°15.608 2°53.703 330.2 13.6 330 13.5
2004-08-25 06:44:15 51°15.614 2°53.696 330.2 13.5 329 13.5
2004-08-25 06:44:22 51°15.637 2°53.675 329.8 13.6 330 13.5
2004-08-25 06:44:26 51°15.65 2°53.663 329.5 13.5 329 13.6
2004-08-25 06:44:33 51°15.673 2°53.642 329.5 13.5 330 13.7
2004-08-25 06:44:35 51°15.68 2°53.636 330.1 13.6 331 13.8
2004-08-25 06:44:42 51°15.703 2°53.617 331.1 13.6 333 13.8
2004-08-25 06:44:45 51°15.713 2°53.608 332.2 13.6 333 13.8
2004-08-25 06:44:53 51°15.74 2°53.587 333.2 13.6 334 13.9
2004-08-25 06:44:57 51°15.754 2°53.577 333.8 13.6 335 13.9
2004-08-25 06:45:02 51°15.771 2°53.564 334.5 13.8 336 13.9
2004-08-25 06:45:07 51°15.788 2°53.551 335.2 13.7 335 13.9
2004-08-25 06:45:13 51°15.81 2°53.537 335.2 13.7 336 13.9
2004-08-25 06:45:17 51°15.823 2°53.526 335.9 13.7 334 14
2004-08-25 06:45:22 51°15.84 2°53.514 335.4 13.7 336 14
2004-08-25 06:45:26 51°15.854 2°53.504 335.6 13.7 335 14.1
2004-08-25 06:45:32 51°15.875 2°53.489 335.7 13.7 334 14.1
2004-08-25 06:45:37 51°15.893 2°53.476 336.1 13.7 335 14.2
2004-08-25 06:45:42 51°15.91 2°53.464 336 13.7 336 14.1
2004-08-25 06:45:46 51°15.924 2°53.455 336.8 13.8 337 14.4
2004-08-25 06:45:52 51°15.945 2°53.439 336.3 13.7 336 14.2
2004-08-25 06:45:57 51°15.962 2°53.427 336 13.7 335 14.2
2004-08-25 06:46:02 51°15.979 2°53.415 335.7 13.7 336 14.3
2004-08-25 06:46:07 51°15.996 2°53.402 335.3 13.6 335 14.5
2004-08-25 06:46:13 51°16.017 2°53.387 335.4 13.7 336 14.4
2004-08-25 06:46:17 51°16.031 2°53.377 335.5 13.6 335 14.5
2004-08-25 06:46:22 51°16.048 2°53.364 335.3 13.7 336 14.6
2004-08-25 06:46:26 51°16.062 2°53.354 335.4 13.6 336 14.7
2004-08-25 06:46:32 51°16.083 2°53.339 335.3 13.6 335 14.8
2004-08-25 06:46:37 51°16.1 2°53.326 335.1 13.7 335 14.7
2004-08-25 06:46:42 51°16.117 2°53.315 335.1 13.7 337 14.7
2004-08-25 06:46:47 51°16.135 2°53.303 336.1 13.7 338 14.8
2004-08-25 06:46:52 51°16.152 2°53.292 337.5 13.7 338 14.8
2004-08-25 06:46:57 51°16.17 2°53.281 338.1 13.7 339 14.9
2004-08-25 06:47:02 51°16.188 2°53.271 338.9 13.7 341 14.9
2004-08-25 06:47:06 51°16.203 2°53.263 339.6 13.8 340 14.8
2004-08-25 06:47:13 51°16.228 2°53.248 340.2 13.8 340 14.9
2004-08-25 06:47:15 51°16.235 2°53.244 339.9 13.8 340 14.9
2004-08-25 06:47:23 51°16.264 2°53.227 339.6 13.8 340 14.9
2004-08-25 06:47:25 51°16.271 2°53.223 339.1 13.8 340 14.9
2004-08-25 06:47:33 51°16.3 2°53.207 339.2 13.8 339 14.9
2004-08-25 06:47:37 51°16.314 2°53.198 339.2 13.7 339 14.9
2004-08-25 06:47:42 51°16.332 2°53.187 338.6 13.8 339 15
2004-08-25 06:47:46 51°16.346 2°53.178 338.6 13.8 339 14.9
2004-08-25 06:47:53 51°16.371 2°53.164 338.9 13.8 340 15
2004-08-25 06:47:58 51°16.389 2°53.153 338.9 13.8 340 15
2004-08-25 06:48:02 51°16.404 2°53.145 338.8 13.8 341 14.8
2004-08-25 06:48:05 51°16.415 2°53.138 339.1 13.8 339 14.9
2004-08-25 06:48:12 51°16.439 2°53.123 338.6 13.7 339 14.8
2004-08-25 06:48:17 51°16.457 2°53.112 338 13.8 338 14.8
2004-08-25 06:48:22 51°16.475 2°53.101 338.1 13.7 339 15.1
2004-08-25 06:48:27 51°16.493 2°53.089 337.9 13.7 339 14.8
2004-08-25 06:48:32 51°16.51 2°53.079 338.4 13.7 339 14.6
2004-08-25 06:48:37 51°16.528 2°53.067 338.3 13.8 339 14.5
2004-08-25 06:48:42 51°16.546 2°53.057 338.4 13.7 339 14.5
2004-08-25 06:48:47 51°16.563 2°53.045 338.1 13.7 338 14.5
2004-08-25 06:48:53 51°16.585 2°53.032 338 13.7 338 14.5
2004-08-25 06:48:57 51°16.599 2°53.023 338.1 13.7 337 14.4
2004-08-25 06:49:02 51°16.617 2°53.012 338.1 13.8 339 14.3
2004-08-25 06:49:06 51°16.631 2°53.003 338 13.7 338 14.2
2004-08-25 06:49:13 51°16.655 2°52.986 337.5 13.7 338 13.9
2004-08-25 06:49:17 51°16.669 2°52.977 337.4 13.6 338 14
2004-08-25 06:49:22 51°16.686 2°52.965 337.5 13.6 336 13.8
2004-08-25 06:49:27 51°16.704 2°52.954 337.5 13.6 338 13.8
2004-08-25 06:49:33 51°16.725 2°52.941 337.7 13.7 338 13.6
2004-08-25 06:49:37 51°16.739 2°52.932 338.2 13.6 338 13.6
2004-08-25 06:49:43 51°16.76 2°52.918 337.7 13.6 337 13.4
2004-08-25 06:49:46 51°16.77 2°52.911 337.6 13.6 338 13
2004-08-25 06:49:53 51°16.794 2°52.894 337.6 13.6 337 12.5
2004-08-25 06:49:57 51°16.808 2°52.886 337.5 13.5 338 12.1
2004-08-25 06:50:02 51°16.826 2°52.874 337.7 13.5 337 11.8
2004-08-25 06:50:06 51°16.839 2°52.865 337.3 13.5 338 11.9
2004-08-25 06:50:12 51°16.86 2°52.851 338.3 13.4 337 11.6
2004-08-25 06:50:17 51°16.878 2°52.84 338.3 13.5 339 12
2004-08-25 06:50:22 51°16.895 2°52.83 338.3 13.5 340 11.6
2004-08-25 06:50:27 51°16.913 2°52.818 339.3 13.5 338 11.9
2004-08-25 06:50:33 51°16.934 2°52.805 338.5 13.5 338 11.9
2004-08-25 06:50:37 51°16.948 2°52.795 338.5 13.6 337 12.1
2004-08-25 06:50:42 51°16.965 2°52.784 337.6 13.7 338 12.2
2004-08-25 06:50:45 51°16.975 2°52.777 337.8 13.6 338 12.1
2004-08-25 06:50:53 51°17.004 2°52.759 337.9 13.6 338 12.3
2004-08-25 06:50:57 51°17.018 2°52.749 338.4 13.7 337 12.4
2004-08-25 06:51:02 51°17.035 2°52.737 338.2 13.6 337 12.5
2004-08-25 06:51:07 51°17.053 2°52.727 338.3 13.6 339 12.6
2004-08-25 06:51:11 51°17.067 2°52.717 338.8 13.7 338 12.8
2004-08-25 06:51:17 51°17.088 2°52.704 338.9 13.6 338 12.8
2004-08-25 06:51:21 51°17.102 2°52.695 338.4 13.6 339 12.2
2004-08-25 06:51:27 51°17.123 2°52.681 338.9 13.6 337 12.2
2004-08-25 06:51:33 51°17.145 2°52.669 339 13.6 338 12
2004-08-25 06:51:37 51°17.159 2°52.659 339.1 13.6 338 12.2
2004-08-25 06:51:42 51°17.176 2°52.649 338.5 13.7 339 12.5
2004-08-25 06:51:45 51°17.187 2°52.641 338.5 13.6 337 12.2
2004-08-25 06:51:53 51°17.215 2°52.624 338.9 13.8 339 12.3
2004-08-25 06:51:58 51°17.233 2°52.613 339 13.7 339 12.3
2004-08-25 06:52:02 51°17.247 2°52.604 339.1 13.7 339 12.5
2004-08-25 06:52:05 51°17.257 2°52.597 339.3 13.7 338 12.5
2004-08-25 06:52:12 51°17.282 2°52.581 339.4 13.7 338 12.4
2004-08-25 06:52:15 51°17.292 2°52.573 337.5 13.6 334 12.6
2004-08-25 06:52:22 51°17.316 2°52.553 334.4 13.5 331 12.6
2004-08-25 06:52:26 51°17.329 2°52.542 332.4 13.4 331 12.4
2004-08-25 06:52:33 51°17.352 2°52.521 330.5 13.4 330 12.6
2004-08-25 06:52:37 51°17.364 2°52.508 329.2 13.6 329 12.8
2004-08-25 06:52:42 51°17.38 2°52.492 328.5 13.5 328 13
2004-08-25 06:52:46 51°17.393 2°52.48 327.7 13.5 328 13
2004-08-25 06:52:53 51°17.414 2°52.456 326.8 13.4 325 12.8
2004-08-25 06:52:58 51°17.428 2°52.438 326.5 13.2 321 12.9
2004-08-25 06:53:02 51°17.439 2°52.422 321.9 13.1 319 13.1
2004-08-25 06:53:05 51°17.447 2°52.411 318.7 13.1 318 13.1
2004-08-25 06:53:13 51°17.468 2°52.379 316.4 12.9 316 13
2004-08-25 06:53:17 51°17.478 2°52.363 315 12.9 314 12.8
2004-08-25 06:53:22 51°17.49 2°52.342 314.1 12.9 313 13.3
2004-08-25 06:53:25 51°17.498 2°52.329 312.8 12.9 312 13.1
2004-08-25 06:53:33 51°17.516 2°52.295 309.9 12.8 310 13.1
2004-08-25 06:53:37 51°17.524 2°52.277 307.7 12.9 307 12.9
2004-08-25 06:53:42 51°17.535 2°52.254 306.7 12.8 307 13.1
2004-08-25 06:53:45 51°17.541 2°52.24 304.8 12.8 305 12.9
2004-08-25 06:53:53 51°17.557 2°52.202 304.1 12.9 304 13
2004-08-25 06:53:57 51°17.565 2°52.183 303.5 12.8 303 13.3
2004-08-25 06:54:02 51°17.575 2°52.16 302.6 12.9 303 13.3
2004-08-25 06:54:07 51°17.584 2°52.136 302 13 303 13.2
2004-08-25 06:54:11 51°17.592 2°52.116 302.2 13.1 304 13
2004-08-25 06:54:17 51°17.605 2°52.088 302.9 13.1 304 13.2
2004-08-25 06:54:22 51°17.615 2°52.064 303.3 13.1 304 13
2004-08-25 06:54:25 51°17.621 2°52.05 303 13.1 304 13.3
2004-08-25 06:54:32 51°17.635 2°52.016 302.7 13 304 12.9
2004-08-25 06:54:37 51°17.645 2°51.991 302.6 13.1 304 13
2004-08-25 06:54:42 51°17.655 2°51.967 302.6 13.1 303 13.2
2004-08-25 06:54:47 51°17.665 2°51.943 302.4 13 304 12.6
2004-08-25 06:54:53 51°17.678 2°51.914 303.3 13.2 305 13.1
2004-08-25 06:54:57 51°17.686 2°51.895 303.6 13.1 304 12.8
2004-08-25 06:55:02 51°17.696 2°51.871 303.4 13.2 304 12.7
2004-08-25 06:55:06 51°17.704 2°51.851 303.3 13.2 304 12.7
2004-08-25 06:55:13 51°17.719 2°51.818 303.3 13.2 304 13
2004-08-25 06:55:17 51°17.727 2°51.798 303.1 13.3 305 12.8
2004-08-25 06:55:22 51°17.738 2°51.774 303.5 13.2 305 12.6
2004-08-25 06:55:26 51°17.746 2°51.755 303.8 13.3 305 12.8
2004-08-25 06:55:31 51°17.756 2°51.731 303.5 13.3 305 12.5
2004-08-25 06:55:37 51°17.769 2°51.702 303.8 13.4 306 12.6
2004-08-25 06:55:42 51°17.779 2°51.678 304.1 13.2 304 12.7
2004-08-25 06:55:46 51°17.787 2°51.659 303.7 13.2 304 12.5
2004-08-25 06:55:53 51°17.802 2°51.624 303.3 13.2 303 12.7
2004-08-25 06:55:57 51°17.81 2°51.605 303.6 13.1 304 12.6
2004-08-25 06:56:02 51°17.82 2°51.581 303.6 13.1 304 12.8
2004-08-25 06:56:07 51°17.83 2°51.557 303.6 13.2 303 12.7
2004-08-25 06:56:13 51°17.843 2°51.528 303.7 13.3 305 12.9
2004-08-25 06:56:17 51°17.851 2°51.508 304.1 13.3 303 12.7
2004-08-25 06:56:22 51°17.862 2°51.484 303.8 13.3 305 13.2
2004-08-25 06:56:27 51°17.872 2°51.459 303.7 13.2 303 13
2004-08-25 06:56:33 51°17.884 2°51.431 303.3 13.2 304 13.3
2004-08-25 06:56:38 51°17.894 2°51.406 303.7 13.1 303 13.1
2004-08-25 06:56:42 51°17.902 2°51.387 304.1 13.1 305 13
2004-08-25 06:56:46 51°17.91 2°51.367 304.3 13.1 303 13.1
2004-08-25 06:56:52 51°17.923 2°51.339 303.9 13 304 13.1
2004-08-25 06:56:57 51°17.933 2°51.315 304.7 13.1 304 13.5
2004-08-25 06:57:02 51°17.943 2°51.291 304.4 13.2 304 13.4
2004-08-25 06:57:06 51°17.951 2°51.271 304.1 13.2 304 13.6
2004-08-25 06:57:13 51°17.966 2°51.237 304.2 13.2 304 13.9
2004-08-25 06:57:17 51°17.974 2°51.218 304.5 13.4 304 14.2
2004-08-25 06:57:22 51°17.984 2°51.193 304.1 13.4 304 14.2
2004-08-25 06:57:26 51°17.993 2°51.174 304.5 13.2 305 14.1
2004-08-25 06:57:33 51°18.008 2°51.141 304.5 13.3 306 14.3
2004-08-25 06:57:34 51°18.01 2°51.137 305.5 13.1 306 14.7
2004-08-25 06:57:43 51°18.03 2°51.094 305.3 13.2 306 14.7
2004-08-25 06:57:45 51°18.034 2°51.085 305.4 13.2 306 14.7
2004-08-25 06:57:53 51°18.051 2°51.047 305.3 13.3 306 14.8
2004-08-25 06:57:57 51°18.059 2°51.027 305.5 13.1 305 15
2004-08-25 06:58:02 51°18.07 2°51.004 304.4 13.2 306 14.9
2004-08-25 06:58:07 51°18.081 2°50.98 305 13.3 305 14.7
2004-08-25 06:58:11 51°18.089 2°50.961 305.3 13.2 305 15
2004-08-25 06:58:17 51°18.102 2°50.932 304.8 13.4 305 15.1
2004-08-25 06:58:22 51°18.113 2°50.908 304.9 13.4 305 15.4
2004-08-25 06:58:27 51°18.123 2°50.884 304.8 13.3 306 15.4
2004-08-25 06:58:33 51°18.136 2°50.856 305 13.3 305 15.4
2004-08-25 06:58:37 51°18.144 2°50.836 304.8 13.3 305 15.6
2004-08-25 06:58:42 51°18.155 2°50.812 304.5 13.3 305 15.6
2004-08-25 06:58:47 51°18.165 2°50.788 304.4 13.3 304 15.9
2004-08-25 06:58:52 51°18.176 2°50.764 304.1 13.3 306 15.7
2004-08-25 06:58:57 51°18.187 2°50.74 304.7 13.3 305 16
2004-08-25 06:59:00 51°18.193 2°50.726 305 13.2 305 15.7
2004-08-25 06:59:07 51°18.208 2°50.693 304.8 13.1 305 15.6
2004-08-25 06:59:12 51°18.218 2°50.669 304.6 13.3 305 16
2004-08-25 06:59:17 51°18.228 2°50.644 304.2 12.9 303 16
2004-08-25 06:59:22 51°18.239 2°50.621 302.9 13.1 305 16
2004-08-25 06:59:26 51°18.246 2°50.601 303.2 13.1 303 16
2004-08-25 06:59:30 51°18.254 2°50.582 303 13 304 16.1
2004-08-25 06:59:37 51°18.268 2°50.548 302.7 13.1 303 16.2
2004-08-25 06:59:43 51°18.28 2°50.519 302.7 13.2 304 16.5
2004-08-25 06:59:46 51°18.286 2°50.504 303 13.2 303 16.6
2004-08-25 06:59:51 51°18.296 2°50.48 302.6 13.2 303 16.5
2004-08-25 06:59:57 51°18.308 2°50.451 303 13.2 304 16.6
2004-08-25 07:00:03 51°18.32 2°50.421 303.3 13.2 304 16.6
2004-08-25 07:00:06 51°18.326 2°50.407 303.3 13.1 303 16.6
2004-08-25 07:00:10 51°18.334 2°50.387 303.2 13.1 303 16.7
2004-08-25 07:00:18 51°18.35 2°50.348 302.9 13.1 302 17
2004-08-25 07:00:22 51°18.358 2°50.328 302.1 13.1 302 16.7
2004-08-25 07:00:26 51°18.365 2°50.308 301.8 13.1 301 16.7
2004-08-25 07:00:32 51°18.377 2°50.279 301.7 13.2 302 17
2004-08-25 07:00:37 51°18.387 2°50.254 301.7 13.2 302 16.7
2004-08-25 07:00:42 51°18.396 2°50.229 301.7 13.1 301 16.8
2004-08-25 07:00:47 51°18.405 2°50.204 301.6 13.2 301 16.8
2004-08-25 07:00:53 51°18.417 2°50.175 301.4 13.2 302 16.9
2004-08-25 07:00:56 51°18.423 2°50.16 302 13.1 302 16.6
2004-08-25 07:01:02 51°18.434 2°50.13 301.5 13.1 302 16.7
2004-08-25 07:01:07 51°18.444 2°50.105 301.9 13.1 302 16.8
2004-08-25 07:01:13 51°18.456 2°50.076 302 13.1 302 16.5
2004-08-25 07:01:17 51°18.463 2°50.056 302 13.1 302 16.8
2004-08-25 07:01:21 51°18.471 2°50.037 302.5 13.1 303 16.7
2004-08-25 07:01:26 51°18.48 2°50.012 302.3 13.1 302 16.4
2004-08-25 07:01:32 51°18.492 2°49.983 302.1 13 302 16.4
2004-08-25 07:01:37 51°18.502 2°49.958 302.2 12.9 301 16.1
2004-08-25 07:01:42 51°18.511 2°49.933 301.9 13 302 16.3
2004-08-25 07:01:46 51°18.519 2°49.914 301.8 13 303 16
2004-08-25 07:01:51 51°18.528 2°49.889 302.1 13 302 16
2004-08-25 07:01:57 51°18.54 2°49.86 301.8 13.1 303 15.6
2004-08-25 07:02:02 51°18.55 2°49.835 302.1 13.1 301 15.7
2004-08-25 07:02:05 51°18.555 2°49.82 301.7 13.1 302 15.6
2004-08-25 07:02:13 51°18.57 2°49.78 301.7 13.1 301 15.6
2004-08-25 07:02:15 51°18.574 2°49.77 300.8 13 300 15.2
2004-08-25 07:02:22 51°18.587 2°49.736 300.7 13.1 302 15
2004-08-25 07:02:26 51°18.594 2°49.716 301.4 13.1 302 14.9
2004-08-25 07:02:33 51°18.608 2°49.682 302.3 13.1 302 14.8
2004-08-25 07:02:37 51°18.615 2°49.662 302.1 13.1 301 14.6
2004-08-25 07:02:42 51°18.625 2°49.638 302 13.1 303 14.5
2004-08-25 07:02:46 51°18.632 2°49.618 301.8 13 301 14.2
2004-08-25 07:02:50 51°18.64 2°49.598 301.7 13 301 13.8
2004-08-25 07:02:56 51°18.651 2°49.569 301.9 13 302 13.3
2004-08-25 07:03:02 51°18.663 2°49.54 302.2 13 303 13.4
2004-08-25 07:03:07 51°18.673 2°49.515 302.6 13 302 13.4
2004-08-25 07:03:13 51°18.684 2°49.486 302.2 13 302 13.3
2004-08-25 07:03:17 51°18.692 2°49.466 302.5 12.8 302 13.3
2004-08-25 07:03:21 51°18.7 2°49.448 302.1 12.9 303 13.1
2004-08-25 07:03:27 51°18.711 2°49.418 302.4 12.9 301 12.8
2004-08-25 07:03:29 51°18.714 2°49.408 302 12.9 302 12.9
2004-08-25 07:03:41 51°18.737 2°49.35 301.9 12.9 302 13.2
2004-08-25 07:03:43 51°18.741 2°49.34 302 13 301 12.9
2004-08-25 07:03:50 51°18.754 2°49.306 301.7 13 302 13.2
2004-08-25 07:03:55 51°18.764 2°49.282 302.2 13 303 13.3
2004-08-25 07:03:59 51°18.772 2°49.262 302.6 13.1 302 13.7
2004-08-25 07:04:05 51°18.783 2°49.233 302.4 13 302 14.1
2004-08-25 07:04:09 51°18.792 2°49.214 302 13.1 303 13.7
2004-08-25 07:04:15 51°18.803 2°49.184 302.4 13.1 302 13.9
2004-08-25 07:04:21 51°18.815 2°49.155 302.6 13.1 302 13.8
2004-08-25 07:04:25 51°18.822 2°49.136 302.3 13 303 13.4
2004-08-25 07:04:30 51°18.832 2°49.111 302.8 12.9 302 13.5
2004-08-25 07:04:32 51°18.836 2°49.101 302.2 13 302 13.9
2004-08-25 07:04:41 51°18.853 2°49.058 302.2 13.1 303 13.8
2004-08-25 07:04:44 51°18.859 2°49.043 302.3 13.1 303 14.3
2004-08-25 07:04:50 51°18.871 2°49.014 302.3 13.1 302 14.4
2004-08-25 07:04:55 51°18.88 2°48.99 302.4 13.1 302 14.1
2004-08-25 07:04:59 51°18.888 2°48.97 302.1 13.1 303 14.2
2004-08-25 07:05:05 51°18.9 2°48.941 302.8 13.1 303 14.7
2004-08-25 07:05:10 51°18.91 2°48.917 302.6 13.1 303 14.8
2004-08-25 07:05:15 51°18.92 2°48.893 302.4 13.1 304 15.1
2004-08-25 07:05:20 51°18.93 2°48.869 303.1 13 303 14.9
2004-08-25 07:05:26 51°18.942 2°48.84 303.5 13.1 303 15.4
2004-08-25 07:05:31 51°18.952 2°48.816 302.4 13.1 303 15.7
2004-08-25 07:05:33 51°18.956 2°48.806 302.6 13 304 16
2004-08-25 07:05:41 51°18.972 2°48.768 302.2 13 304 16.5
2004-08-25 07:05:45 51°18.98 2°48.748 302.5 13 303 16.8
2004-08-25 07:05:50 51°18.989 2°48.724 302 13 303 17
2004-08-25 07:05:55 51°18.999 2°48.7 302.4 13 303 16.8
2004-08-25 07:05:58 51°19.005 2°48.685 302.5 13 303 17
2004-08-25 07:06:05 51°19.019 2°48.652 302.6 12.9 305 17.1
2004-08-25 07:06:10 51°19.03 2°48.629 302.9 13 305 16.9
2004-08-25 07:06:15 51°19.04 2°48.605 303.9 13 305 17.2
2004-08-25 07:06:27 51°19.062 2°48.547 301.4 12.9 300 17.6
2004-08-25 07:06:33 51°19.073 2°48.516 298.9 12.8 298 17.9
2004-08-25 07:06:37 51°19.079 2°48.496 297.9 12.7 297 18.2
2004-08-25 07:06:42 51°19.087 2°48.472 296.3 12.8 297 18.3
2004-08-25 07:06:46 51°19.093 2°48.451 296 12.8 296 18.6
2004-08-25 07:06:50 51°19.099 2°48.431 294.9 12.6 295 18.7
2004-08-25 07:06:57 51°19.11 2°48.395 294.3 12.8 296 18.9
2004-08-25 07:07:01 51°19.116 2°48.375 294.5 12.6 296 19.2
2004-08-25 07:07:05 51°19.122 2°48.355 294.4 12.6 296 19.3
2004-08-25 07:07:13 51°19.134 2°48.315 294.6 12.7 296 19.6
2004-08-25 07:07:17 51°19.141 2°48.294 294.8 12.8 297 19.6
2004-08-25 07:07:21 51°19.147 2°48.274 295.2 12.8 297 19.9
2004-08-25 07:07:26 51°19.155 2°48.249 295.1 12.8 297 20
2004-08-25 07:07:33 51°19.166 2°48.213 295.1 12.7 296 20
2004-08-25 07:07:37 51°19.172 2°48.193 294.6 12.8 296 20.2
2004-08-25 07:07:42 51°19.18 2°48.167 294.5 12.8 296 20.4
2004-08-25 07:07:46 51°19.186 2°48.147 294.6 12.8 295 20.5
2004-08-25 07:07:52 51°19.195 2°48.116 294.1 12.8 295 20.7
2004-08-25 07:07:58 51°19.204 2°48.085 293.6 12.8 295 20.9
2004-08-25 07:08:00 51°19.207 2°48.074 294 12.8 295 21
2004-08-25 07:08:05 51°19.215 2°48.048 293.7 12.9 296 21.2
2004-08-25 07:08:15 51°19.231 2°47.997 294.8 12.9 297 21.5
2004-08-25 07:08:21 51°19.241 2°47.967 295.6 12.9 297 21.7
2004-08-25 07:08:26 51°19.248 2°47.941 295 12.9 296 21.7
2004-08-25 07:08:30 51°19.255 2°47.921 294.5 12.7 297 21.8
2004-08-25 07:08:34 51°19.261 2°47.901 295 12.6 298 22.3
2004-08-25 07:08:40 51°19.271 2°47.87 295.6 12.7 296 22.3
2004-08-25 07:08:45 51°19.279 2°47.845 295.2 12.7 296 22.4
2004-08-25 07:08:51 51°19.288 2°47.815 295 12.7 296 22.6
2004-08-25 07:08:55 51°19.294 2°47.794 294.4 12.8 296 22.6
2004-08-25 07:09:01 51°19.303 2°47.763 294.5 12.8 295 22.9
2004-08-25 07:09:06 51°19.311 2°47.738 294.6 12.7 295 23.1
2004-08-25 07:09:10 51°19.317 2°47.718 294.3 12.8 295 23.2
2004-08-25 07:09:15 51°19.324 2°47.692 294.2 12.8 295 23.3
2004-08-25 07:09:19 51°19.33 2°47.671 294 12.8 295 23.5
2004-08-25 07:09:25 51°19.34 2°47.641 294.4 12.9 296 23.6
2004-08-25 07:09:30 51°19.348 2°47.615 295.1 13 296 23.7
2004-08-25 07:09:35 51°19.356 2°47.589 295.2 12.9 297 23.8
2004-08-25 07:09:41 51°19.365 2°47.558 295.3 12.9 296 24
2004-08-25 07:09:44 51°19.37 2°47.543 295 13 296 24
2004-08-25 07:09:50 51°19.379 2°47.512 294.7 12.9 295 24.1
2004-08-25 07:09:55 51°19.387 2°47.486 294.6 12.9 296 24
2004-08-25 07:10:00 51°19.395 2°47.462 294.6 13 296 23.9
2004-08-25 07:10:06 51°19.404 2°47.43 295.1 12.8 295 24.1
2004-08-25 07:10:09 51°19.408 2°47.415 294.6 12.8 295 23.9
2004-08-25 07:10:14 51°19.415 2°47.389 293.1 12.7 291 24.1
2004-08-25 07:10:20 51°19.422 2°47.358 291.2 12.7 292 24
2004-08-25 07:10:24 51°19.428 2°47.337 291.1 12.6 292 24.1
2004-08-25 07:10:29 51°19.434 2°47.311 291 12.6 291 23.9
2004-08-25 07:10:34 51°19.44 2°47.285 290.3 12.6 291 23.9
2004-08-25 07:10:42 51°19.449 2°47.243 289.4 12.7 289 23.9
2004-08-25 07:10:48 51°19.456 2°47.21 288.8 12.7 289 24
2004-08-25 07:10:53 51°19.462 2°47.184 288.2 12.7 288 24
2004-08-25 07:10:58 51°19.467 2°47.157 288.1 12.8 288 24.1
2004-08-25 07:11:01 51°19.471 2°47.141 288.1 12.8 289 24
2004-08-25 07:11:08 51°19.479 2°47.103 288.4 12.8 289 24.2
2004-08-25 07:11:13 51°19.485 2°47.076 288.4 12.8 289 24
2004-08-25 07:11:23 51°19.496 2°47.022 288.1 12.9 288 23.9
2004-08-25 07:11:29 51°19.503 2°46.99 288.3 12.8 289 23.9
2004-08-25 07:11:32 51°19.506 2°46.974 288.6 12.7 289 24
2004-08-25 07:11:37 51°19.512 2°46.947 288.8 12.7 289 23.7
2004-08-25 07:11:41 51°19.516 2°46.926 288.8 12.7 289 23.8
2004-08-25 07:11:49 51°19.525 2°46.884 289.1 12.7 289 23.6
2004-08-25 07:11:53 51°19.53 2°46.862 288.4 12.7 288 23.7
2004-08-25 07:11:58 51°19.535 2°46.836 288.2 12.7 289 23.7
2004-08-25 07:12:03 51°19.541 2°46.809 288.4 12.8 289 23.8
2004-08-25 07:12:09 51°19.548 2°46.776 288.8 12.8 289 24
2004-08-25 07:12:11 51°19.55 2°46.766 288.7 12.8 289 23.9
2004-08-25 07:12:17 51°19.557 2°46.734 288.8 12.8 289 23.6
2004-08-25 07:12:21 51°19.562 2°46.713 288.9 12.8 290 23.8
2004-08-25 07:12:28 51°19.57 2°46.675 288.8 12.7 289 23.4
2004-08-25 07:12:34 51°19.578 2°46.643 289.2 12.8 291 23
2004-08-25 07:12:38 51°19.582 2°46.622 289.6 12.8 290 23.1
2004-08-25 07:12:43 51°19.588 2°46.595 289.5 12.8 289 23
2004-08-25 07:12:48 51°19.594 2°46.569 289.5 12.6 290 22.4
2004-08-25 07:12:53 51°19.601 2°46.544 289.4 12.4 292 22.4
2004-08-25 07:12:58 51°19.607 2°46.518 290.6 12.4 290 21.8
2004-08-25 07:13:02 51°19.612 2°46.497 289.9 12.4 290 21.5
2004-08-25 07:13:08 51°19.619 2°46.465 289.4 12.6 289 21.4
2004-08-25 07:13:13 51°19.625 2°46.439 289.1 12.7 290 21.4
2004-08-25 07:13:17 51°19.629 2°46.418 289.2 12.7 289 21.2
2004-08-25 07:13:22 51°19.635 2°46.391 289.1 12.7 289 20.9
2004-08-25 07:13:29 51°19.642 2°46.354 288.4 12.7 288 20.2
2004-08-25 07:13:33 51°19.647 2°46.332 288.3 12.7 288 20.8
2004-08-25 07:13:38 51°19.652 2°46.305 288.1 12.8 288 20.7
2004-08-25 07:13:42 51°19.657 2°46.284 288 12.7 288 19.8
2004-08-25 07:13:49 51°19.664 2°46.247 287.7 12.6 288 18.7
2004-08-25 07:13:54 51°19.67 2°46.221 288.4 12.7 289 19.9
2004-08-25 07:13:58 51°19.674 2°46.199 288.5 12.7 288 19.5
2004-08-25 07:14:01 51°19.677 2°46.183 288.7 12.7 288 19.5
2004-08-25 07:14:09 51°19.686 2°46.141 288.2 12.7 288 18.4
2004-08-25 07:14:14 51°19.692 2°46.115 288.2 12.5 289 18.2
2004-08-25 07:14:18 51°19.697 2°46.094 288.7 12.5 290 16.9
2004-08-25 07:14:22 51°19.701 2°46.073 289.1 12.5 288 16.4
2004-08-25 07:14:27 51°19.707 2°46.047 289.3 12.5 290 17.9
2004-08-25 07:14:33 51°19.714 2°46.015 289.5 12.6 289 17.8
2004-08-25 07:14:38 51°19.72 2°45.989 289.6 12.6 289 17.4
2004-08-25 07:14:42 51°19.724 2°45.968 289.5 12.6 289 16.4
2004-08-25 07:14:49 51°19.732 2°45.931 289.3 12.6 289 14.1
2004-08-25 07:14:54 51°19.738 2°45.905 289 12.4 289 16
2004-08-25 07:14:58 51°19.743 2°45.884 289.5 12.4 289 16.3
2004-08-25 07:15:02 51°19.747 2°45.863 288.7 12.4 288 16
2004-08-25 07:15:08 51°19.754 2°45.831 288.6 12.5 289 15.4
2004-08-25 07:15:14 51°19.76 2°45.8 288 12.4 287 13.4
2004-08-25 07:15:17 51°19.763 2°45.785 287.5 12.4 286 15.9
2004-08-25 07:15:22 51°19.767 2°45.758 286.2 12.5 286 16.3
2004-08-25 07:15:29 51°19.774 2°45.721 286 12.4 287 13.9
2004-08-25 07:15:34 51°19.778 2°45.695 285.8 12.4 285 16
2004-08-25 07:15:38 51°19.782 2°45.674 285.5 12.3 286 16.5
2004-08-25 07:15:42 51°19.786 2°45.653 285.4 12.3 286 15.3
2004-08-25 07:15:49 51°19.793 2°45.616 286.2 12.4 287 15.4
2004-08-25 07:15:54 51°19.798 2°45.59 286.3 12.2 287 16.1
2004-08-25 07:15:58 51°19.801 2°45.569 285.7 12.2 285 15.5
2004-08-25 07:16:03 51°19.806 2°45.543 284.9 12.3 285 15.7
2004-08-25 07:16:09 51°19.812 2°45.511 284.8 12.4 286 16.9
2004-08-25 07:16:11 51°19.813 2°45.501 285.4 12.5 286 17.6
2004-08-25 07:16:17 51°19.819 2°45.469 285.7 12.5 286 18.8
2004-08-25 07:16:23 51°19.825 2°45.437 285.3 12.5 287 19.1
2004-08-25 07:16:27 51°19.829 2°45.416 286 12.5 287 18.9
2004-08-25 07:16:32 51°19.834 2°45.389 285.8 12.6 288 19.5
2004-08-25 07:16:38 51°19.84 2°45.358 286.2 12.5 287 20.6
2004-08-25 07:16:42 51°19.845 2°45.337 285.9 12.4 287 21.8
2004-08-25 07:16:48 51°19.851 2°45.306 285.9 12.4 288 22
2004-08-25 07:16:50 51°19.853 2°45.295 285.5 12.3 284 22.2
2004-08-25 07:16:58 51°19.859 2°45.252 283.2 12.3 283 22.7
2004-08-25 07:17:02 51°19.862 2°45.231 281.5 12.3 282 23.4
2004-08-25 07:17:06 51°19.864 2°45.209 280.2 12.4 281 23.7
2004-08-25 07:17:13 51°19.869 2°45.172 279.6 12.4 281 23.6
2004-08-25 07:17:18 51°19.872 2°45.145 279.5 12.4 280 24.1
2004-08-25 07:17:22 51°19.875 2°45.123 279 12.4 280 24.4
2004-08-25 07:17:28 51°19.878 2°45.091 278.9 12.3 280 24.3
2004-08-25 07:17:33 51°19.882 2°45.064 278.7 12.3 281 24.3
2004-08-25 07:17:38 51°19.885 2°45.037 278.7 12.3 281 24.4
2004-08-25 07:17:42 51°19.887 2°45.016 279.1 12.4 281 24.6
2004-08-25 07:17:49 51°19.892 2°44.978 279.2 12.4 280 25
2004-08-25 07:17:54 51°19.895 2°44.951 278.7 12.5 280 25
2004-08-25 07:17:58 51°19.897 2°44.929 278.6 12.5 280 25.2
2004-08-25 07:18:03 51°19.9 2°44.901 278.5 12.5 280 25.1
2004-08-25 07:18:08 51°19.903 2°44.874 278.1 12.4 280 25.3
2004-08-25 07:18:13 51°19.906 2°44.847 277.9 12.5 280 25.1
2004-08-25 07:18:17 51°19.908 2°44.826 278.1 12.5 280 25.4
2004-08-25 07:18:27 51°19.914 2°44.772 278.5 12.4 280 25.6
2004-08-25 07:18:33 51°19.917 2°44.739 278.1 12.5 280 24.9
2004-08-25 07:18:37 51°19.92 2°44.718 278.3 12.5 280 25.2
2004-08-25 07:18:42 51°19.923 2°44.691 279.1 12.5 281 25.5
2004-08-25 07:18:47 51°19.926 2°44.663 278.6 12.5 279 25.5
2004-08-25 07:18:53 51°19.929 2°44.631 278 12.5 281 25.8
2004-08-25 07:18:57 51°19.932 2°44.609 278.9 12.5 281 26.1
2004-08-25 07:19:02 51°19.935 2°44.581 279.2 12.5 280 26.2
2004-08-25 07:19:05 51°19.937 2°44.565 279.1 12.5 280 26.7
2004-08-25 07:19:14 51°19.942 2°44.516 278.4 12.5 280 27
2004-08-25 07:19:21 51°19.947 2°44.478 279.1 12.6 281 26.9
2004-08-25 07:19:26 51°19.95 2°44.451 279 12.4 281 27.2
2004-08-25 07:19:30 51°19.952 2°44.429 279.4 12.3 280 27.2
2004-08-25 07:19:35 51°19.956 2°44.402 279.2 12.4 281 27.3
2004-08-25 07:19:40 51°19.959 2°44.375 279.2 12.4 280 27.5
2004-08-25 07:19:46 51°19.963 2°44.342 279 12.5 281 27.5
2004-08-25 07:19:49 51°19.965 2°44.326 279.3 12.5 280 27.6
2004-08-25 07:19:54 51°19.967 2°44.298 279 12.5 279 27.8
2004-08-25 07:20:01 51°19.971 2°44.26 279 12.7 280 27.7
2004-08-25 07:20:05 51°19.974 2°44.238 278.3 12.6 280 28
2004-08-25 07:20:10 51°19.977 2°44.211 278.6 12.6 281 28
2004-08-25 07:20:15 51°19.98 2°44.183 278.9 12.6 280 28.2
2004-08-25 07:20:27 51°19.987 2°44.118 278.5 12.3 279 28
2004-08-25 07:20:33 51°19.99 2°44.086 278.2 12.4 279 28.1
2004-08-25 07:20:38 51°19.993 2°44.059 278.2 12.4 278 27.9
2004-08-25 07:20:42 51°19.995 2°44.037 277.9 12.5 280 27.9
2004-08-25 07:20:45 51°19.997 2°44.021 278.5 12.6 280 28.2
2004-08-25 07:20:53 51°20.002 2°43.977 278.9 12.6 280 27.8
2004-08-25 07:20:57 51°20.005 2°43.956 279.7 12.5 280 28
2004-08-25 07:21:02 51°20.008 2°43.928 279.5 12.5 279 28
2004-08-25 07:21:05 51°20.009 2°43.912 278.7 12.3 278 28
2004-08-25 07:21:15 51°20.015 2°43.857 278.2 12.5 280 27.1
2004-08-25 07:21:19 51°20.017 2°43.835 278.7 12.5 280 27.8
2004-08-25 07:21:25 51°20.022 2°43.802 279.5 12.6 280 27.5
2004-08-25 07:21:30 51°20.025 2°43.775 279.7 12.7 281 26.1
2004-08-25 07:21:34 51°20.028 2°43.753 279.5 12.6 280 27.4
2004-08-25 07:21:41 51°20.031 2°43.715 278.7 12.5 279 27.9
2004-08-25 07:21:44 51°20.033 2°43.698 278.7 12.6 280 28.2
2004-08-25 07:21:50 51°20.037 2°43.665 278.7 12.5 279 28.3
2004-08-25 07:21:55 51°20.04 2°43.638 278.7 12.6 281 28.4
2004-08-25 07:21:59 51°20.042 2°43.616 278.8 12.7 280 28.6
2004-08-25 07:22:05 51°20.046 2°43.583 278.7 12.5 280 28.9
2004-08-25 07:22:10 51°20.049 2°43.556 278.8 12.5 280 28.7
2004-08-25 07:22:14 51°20.051 2°43.533 279.1 12.5 280 29
2004-08-25 07:22:20 51°20.055 2°43.5 279.4 12.5 281 29.1
2004-08-25 07:22:25 51°20.058 2°43.473 279.3 12.5 280 29
2004-08-25 07:22:30 51°20.062 2°43.446 279.4 12.5 281 29
2004-08-25 07:22:35 51°20.064 2°43.419 279.4 12.5 280 29.1
2004-08-25 07:22:41 51°20.068 2°43.386 279.1 12.5 279 29
2004-08-25 07:22:46 51°20.071 2°43.359 278.8 12.5 280 28.9
2004-08-25 07:22:50 51°20.073 2°43.337 278.7 12.4 280 28.7
2004-08-25 07:22:55 51°20.076 2°43.31 279 12.4 280 29
2004-08-25 07:23:00 51°20.079 2°43.283 279.7 12.4 281 28.9
2004-08-25 07:23:06 51°20.083 2°43.251 279.9 12.3 280 28.9
2004-08-25 07:23:09 51°20.085 2°43.234 279.2 12.4 279 28.8
2004-08-25 07:23:14 51°20.087 2°43.208 278.8 12.4 279 29
2004-08-25 07:23:21 51°20.091 2°43.169 279.2 12.4 280 28.9
2004-08-25 07:23:25 51°20.094 2°43.147 279.4 12.6 279 29
2004-08-25 07:23:29 51°20.096 2°43.126 278.9 12.5 280 28.9
2004-08-25 07:23:34 51°20.099 2°43.099 278.3 12.5 280 29
2004-08-25 07:23:40 51°20.103 2°43.067 278.9 12.5 281 28.6
2004-08-25 07:23:46 51°20.107 2°43.033 279.6 12.6 282 28.5
2004-08-25 07:23:49 51°20.109 2°43.018 280.6 12.4 281 28.7
2004-08-25 07:23:55 51°20.113 2°42.986 279.9 12.2 281 28.4
2004-08-25 07:23:59 51°20.115 2°42.965 280.1 12.3 280 28.3
2004-08-25 07:24:05 51°20.118 2°42.932 279 12.2 280 28.4
2004-08-25 07:24:10 51°20.121 2°42.905 278.7 12.3 281 27.3
2004-08-25 07:24:14 51°20.124 2°42.884 279.3 12.4 279 27.9
2004-08-25 07:24:20 51°20.127 2°42.851 279.5 12.4 280 28
2004-08-25 07:24:25 51°20.13 2°42.824 279.2 12.5 280 28.1
2004-08-25 07:24:30 51°20.133 2°42.797 279.3 12.6 280 28
2004-08-25 07:24:35 51°20.136 2°42.769 279.3 12.6 280 27.8
2004-08-25 07:24:41 51°20.14 2°42.737 279 12.6 280 27.6
2004-08-25 07:24:46 51°20.143 2°42.709 279.4 12.6 281 27.3
2004-08-25 07:24:50 51°20.145 2°42.687 279.6 12.5 279 27.4
2004-08-25 07:24:54 51°20.148 2°42.665 279.3 12.5 280 27
2004-08-25 07:25:00 51°20.151 2°42.633 278.9 12.3 279 25.7
2004-08-25 07:25:05 51°20.154 2°42.606 279.2 12.3 283 26.4
2004-08-25 07:25:10 51°20.158 2°42.58 280.1 12.4 280 26.5
2004-08-25 07:25:13 51°20.159 2°42.564 279.9 12.5 280 26.7
2004-08-25 07:25:21 51°20.165 2°42.521 279.1 12.4 281 26.6
2004-08-25 07:25:25 51°20.167 2°42.499 279.4 12.4 281 26.4
2004-08-25 07:25:30 51°20.17 2°42.472 279.6 12.4 281 26.3
2004-08-25 07:25:34 51°20.173 2°42.451 279.8 12.3 280 24.9
2004-08-25 07:25:40 51°20.177 2°42.419 280 12.4 280 25
2004-08-25 07:25:45 51°20.18 2°42.391 279.4 12.5 280 24.9
2004-08-25 07:25:49 51°20.182 2°42.369 279.6 12.5 281 25.1
2004-08-25 07:25:54 51°20.185 2°42.342 279.7 12.5 279 25.3
2004-08-25 07:26:01 51°20.189 2°42.304 279.2 12.5 279 24.7
2004-08-25 07:26:05 51°20.192 2°42.282 279.2 12.4 281 24.8
2004-08-25 07:26:10 51°20.195 2°42.255 279.4 12.4 280 23.8
2004-08-25 07:26:15 51°20.198 2°42.228 279.4 12.4 280 23
2004-08-25 07:26:19 51°20.2 2°42.207 279.1 12.3 279 18.8
2004-08-25 07:26:26 51°20.204 2°42.169 278.6 12.3 280 21.8
2004-08-25 07:26:30 51°20.206 2°42.147 278.9 12.3 279 23.2
2004-08-25 07:26:33 51°20.208 2°42.131 278.7 12.3 279 22.3
2004-08-25 07:26:40 51°20.211 2°42.093 278.5 12.4 279 21.4
2004-08-25 07:26:46 51°20.215 2°42.061 278.5 12.4 280 21.5
2004-08-25 07:26:50 51°20.217 2°42.039 279 12.4 281 21.5
2004-08-25 07:26:54 51°20.22 2°42.018 279.4 12.4 281 21.4
2004-08-25 07:27:01 51°20.224 2°41.98 280 12.4 281 20.6
2004-08-25 07:27:05 51°20.227 2°41.958 279.8 12.4 279 18.6
2004-08-25 07:27:09 51°20.229 2°41.937 279.2 12.3 280 20.8
2004-08-25 07:27:14 51°20.232 2°41.91 279.6 12.3 280 21.5
2004-08-25 07:27:21 51°20.236 2°41.872 279.4 12.4 279 21.3
2004-08-25 07:27:26 51°20.239 2°41.845 279.4 12.3 281 20.5
2004-08-25 07:27:30 51°20.241 2°41.824 280.1 12.1 280 20.5
2004-08-25 07:27:34 51°20.243 2°41.802 279.4 12.1 279 19.3
2004-08-25 07:27:40 51°20.248 2°41.771 279.4 12.2 282 19.3
2004-08-25 07:27:44 51°20.25 2°41.75 280.1 12.2 280 21
2004-08-25 07:27:50 51°20.254 2°41.718 279.6 12.2 282 20.6
2004-08-25 07:27:55 51°20.257 2°41.692 280 12 280 20.7
2004-08-25 07:28:01 51°20.261 2°41.661 279.6 12 282 20.5
2004-08-25 07:28:05 51°20.263 2°41.64 280.6 12 281 20.2
2004-08-25 07:28:10 51°20.267 2°41.614 280.1 12 280 21.8
2004-08-25 07:28:13 51°20.268 2°41.597 279.8 12.3 280 24
2004-08-25 07:28:19 51°20.272 2°41.565 280 12.3 281 24.1
2004-08-25 07:28:25 51°20.275 2°41.533 279.5 12.2 280 24.2
2004-08-25 07:28:30 51°20.278 2°41.506 279 12.2 280 24.6
2004-08-25 07:28:35 51°20.281 2°41.48 279.4 12.1 280 24.4
2004-08-25 07:28:40 51°20.284 2°41.453 279.3 12.3 280 24.6
2004-08-25 07:28:46 51°20.288 2°41.421 279.3 12 280 24.5
2004-08-25 07:28:50 51°20.29 2°41.4 279.3 12.1 280 24.4
2004-08-25 07:28:54 51°20.293 2°41.379 279.8 12.1 281 23.3
2004-08-25 07:29:00 51°20.297 2°41.347 279.8 12.3 281 23.3
2004-08-25 07:29:05 51°20.3 2°41.32 279.7 12.2 281 23.6
2004-08-25 07:29:10 51°20.303 2°41.294 280.1 12.3 280 22.4
2004-08-25 07:29:14 51°20.305 2°41.273 279.6 12.3 281 22.5
2004-08-25 07:29:21 51°20.309 2°41.235 279.5 12.3 280 22.6
2004-08-25 07:29:26 51°20.313 2°41.209 279.4 12.2 281 23.1
2004-08-25 07:29:30 51°20.315 2°41.187 279.6 12.3 281 23.5
2004-08-25 07:29:35 51°20.318 2°41.16 279.3 12.3 280 24.6
2004-08-25 07:29:39 51°20.321 2°41.139 279.5 12.3 281 24.7
2004-08-25 07:29:46 51°20.325 2°41.102 279.6 12.2 281 23.6
2004-08-25 07:29:49 51°20.327 2°41.086 279.7 12.3 281 24.3
2004-08-25 07:29:55 51°20.331 2°41.053 279.5 12.3 279 26
2004-08-25 07:30:01 51°20.335 2°41.021 279 12.3 280 27.1
2004-08-25 07:30:05 51°20.337 2°41 279 12.4 281 28.5
2004-08-25 07:30:10 51°20.34 2°40.973 279.6 12.3 280 29.5
2004-08-25 07:30:14 51°20.343 2°40.952 279.1 12.3 281 30.3
2004-08-25 07:30:20 51°20.346 2°40.919 278.9 12.3 279 30.5
2004-08-25 07:30:26 51°20.35 2°40.887 279 12.4 279 30.7
2004-08-25 07:30:31 51°20.353 2°40.86 278.6 12.4 280 30.7
2004-08-25 07:30:35 51°20.355 2°40.839 278.4 12.4 281 30.6
2004-08-25 07:30:39 51°20.358 2°40.817 279 12.2 280 30.8
2004-08-25 07:30:46 51°20.362 2°40.779 279.4 12.4 280 30.8
2004-08-25 07:30:50 51°20.364 2°40.758 278.9 12.4 280 30.8
2004-08-25 07:30:54 51°20.367 2°40.736 279.3 12.5 280 30.9
2004-08-25 07:31:01 51°20.372 2°40.698 278.8 12.4 280 30.7
2004-08-25 07:31:06 51°20.375 2°40.672 279.3 12.4 281 30.7
2004-08-25 07:31:10 51°20.377 2°40.65 279.7 12.3 281 30.9
2004-08-25 07:31:14 51°20.38 2°40.629 279.5 12.3 281 30.9
2004-08-25 07:31:21 51°20.384 2°40.592 279.6 12.3 280 31.1
2004-08-25 07:31:26 51°20.388 2°40.565 279.6 12.2 281 31
2004-08-25 07:31:30 51°20.39 2°40.543 279.5 12.3 280 30.8
2004-08-25 07:31:35 51°20.393 2°40.517 279.4 12.2 282 30.8
2004-08-25 07:31:41 51°20.397 2°40.484 279.6 12.2 282 30.6
2004-08-25 07:31:45 51°20.4 2°40.463 279.3 12.1 281 30.6
2004-08-25 07:31:50 51°20.403 2°40.437 279.2 12 281 30.2
2004-08-25 07:31:54 51°20.405 2°40.415 279.6 12.1 280 30.2
2004-08-25 07:32:00 51°20.409 2°40.383 279.5 12.3 280 30
2004-08-25 07:32:05 51°20.412 2°40.356 279.2 12.4 280 29.8
2004-08-25 07:32:11 51°20.415 2°40.324 279.3 12.4 280 30
2004-08-25 07:32:14 51°20.417 2°40.308 278.4 12.4 280 29.9
2004-08-25 07:32:18 51°20.42 2°40.286 278.9 12.3 281 30
2004-08-25 07:32:25 51°20.425 2°40.249 279.4 12.3 281 29.7
2004-08-25 07:32:30 51°20.428 2°40.222 279.9 12.3 280 29.8
2004-08-25 07:32:34 51°20.43 2°40.201 279.2 12.3 281 30.1
2004-08-25 07:32:40 51°20.434 2°40.168 279.3 12.3 281 29.9
2004-08-25 07:32:46 51°20.437 2°40.136 279.4 12.4 280 29.6
2004-08-25 07:32:51 51°20.44 2°40.109 279.1 12.4 280 29.5
2004-08-25 07:32:55 51°20.443 2°40.087 279.3 12.5 280 29.6
2004-08-25 07:32:59 51°20.445 2°40.065 279.4 12.5 280 29.8
2004-08-25 07:33:06 51°20.449 2°40.027 280 12.6 280 29.9
2004-08-25 07:33:10 51°20.452 2°40.005 279.7 12.7 281 29.9
2004-08-25 07:33:15 51°20.455 2°39.978 280.1 12.7 281 29.8
2004-08-25 07:33:19 51°20.458 2°39.956 280.1 12.5 281 30
2004-08-25 07:33:25 51°20.462 2°39.923 279.8 12.5 281 29.6
2004-08-25 07:33:30 51°20.465 2°39.896 280.5 12.5 282 29.7
2004-08-25 07:33:34 51°20.468 2°39.874 280.3 12.5 281 29.7
2004-08-25 07:33:38 51°20.471 2°39.853 280.2 12.4 282 29.7
2004-08-25 07:33:47 51°20.476 2°39.804 279.4 12.3 280 29.2
2004-08-25 07:33:53 51°20.479 2°39.771 278.7 12.3 279 29.1
2004-08-25 07:33:57 51°20.482 2°39.75 279.1 12.4 280 29.2
2004-08-25 07:34:02 51°20.485 2°39.723 279.4 12.4 281 28.9
2004-08-25 07:34:07 51°20.488 2°39.695 279.3 12.5 281 29.1
2004-08-25 07:34:13 51°20.491 2°39.663 279.6 12.5 280 29.2
2004-08-25 07:34:17 51°20.494 2°39.642 279.2 12.4 280 28.7
2004-08-25 07:34:21 51°20.496 2°39.62 279.1 12.2 280 28.9
2004-08-25 07:34:25 51°20.499 2°39.598 279.3 12.2 279 28.7
2004-08-25 07:34:33 51°20.503 2°39.555 278.6 12.3 278 28.5
2004-08-25 07:34:37 51°20.505 2°39.533 278.4 12.4 280 28.1
2004-08-25 07:34:42 51°20.508 2°39.506 278.7 12.5 280 28.2
2004-08-25 07:34:47 51°20.511 2°39.479 279 12.3 280 27.8
2004-08-25 07:34:53 51°20.515 2°39.446 279.2 12.5 280 28.1
2004-08-25 07:34:56 51°20.516 2°39.43 279.1 12.3 279 27.8
2004-08-25 07:35:02 51°20.52 2°39.398 279.2 12.3 280 27.7
2004-08-25 07:35:06 51°20.522 2°39.376 278.7 12.4 278 27.8
2004-08-25 07:35:13 51°20.525 2°39.338 278.4 12.5 279 27.8
2004-08-25 07:35:17 51°20.528 2°39.316 278.7 12.4 279 27.7
2004-08-25 07:35:29 51°20.535 2°39.251 279.1 12.6 280 27.5
2004-08-25 07:35:34 51°20.538 2°39.223 279.1 12.5 280 27.2
2004-08-25 07:35:38 51°20.541 2°39.201 279.6 12.5 281 27.1
2004-08-25 07:35:43 51°20.544 2°39.174 279.6 12.5 280 27
2004-08-25 07:35:47 51°20.546 2°39.152 279.5 12.5 279 27.1
2004-08-25 07:35:54 51°20.55 2°39.114 279 12.5 278 26.9
2004-08-25 07:35:57 51°20.552 2°39.097 278.6 12.5 280 26.6
2004-08-25 07:36:02 51°20.554 2°39.07 278.6 12.6 279 27
2004-08-25 07:36:09 51°20.558 2°39.031 278.5 12.5 279 27
2004-08-25 07:36:14 51°20.561 2°39.004 278.6 12.6 280 27.2
2004-08-25 07:36:18 51°20.564 2°38.982 279.2 12.6 280 27.4
2004-08-25 07:36:22 51°20.566 2°38.96 279.4 12.6 280 27.4
2004-08-25 07:36:28 51°20.57 2°38.928 279.4 12.5 281 27.4
2004-08-25 07:36:33 51°20.574 2°38.9 279.7 12.5 281 27.5
2004-08-25 07:36:38 51°20.577 2°38.873 280 12.5 281 27.4
2004-08-25 07:36:42 51°20.58 2°38.852 279.6 12.5 282 27.2
2004-08-25 07:36:48 51°20.583 2°38.819 280.5 12.4 279 27.1
2004-08-25 07:36:53 51°20.586 2°38.791 279.2 12.5 280 26.9
2004-08-25 07:36:57 51°20.589 2°38.77 279.3 12.3 280 26.4
2004-08-25 07:37:01 51°20.591 2°38.748 278.8 12.4 280 26.1
2004-08-25 07:37:05 51°20.593 2°38.726 279.4 12.4 281 25.8
2004-08-25 07:37:14 51°20.599 2°38.678 279.2 12.4 281 26.7
2004-08-25 07:37:18 51°20.601 2°38.656 280.2 12.4 280 27
2004-08-25 07:37:22 51°20.603 2°38.634 278.9 12.4 279 26.7
2004-08-25 07:37:29 51°20.607 2°38.596 278.8 12.5 279 26.8
2004-08-25 07:37:34 51°20.61 2°38.569 278.8 12.5 281 26.7
2004-08-25 07:37:38 51°20.612 2°38.547 279.2 12.5 279 26.8
2004-08-25 07:37:42 51°20.615 2°38.525 279.4 12.5 279 26.7
2004-08-25 07:37:48 51°20.617 2°38.493 278.9 12.4 278 26.8
2004-08-25 07:37:53 51°20.62 2°38.465 278.2 12.5 279 26.8
2004-08-25 07:37:58 51°20.622 2°38.438 278.4 12.6 279 26.9
2004-08-25 07:38:03 51°20.625 2°38.41 278.9 12.6 279 26.1
2004-08-25 07:38:09 51°20.628 2°38.377 278.9 12.5 279 24.9
2004-08-25 07:38:14 51°20.631 2°38.349 278.5 12.6 279 26.3
2004-08-25 07:38:18 51°20.633 2°38.327 278.7 12.7 279 26.5
2004-08-25 07:38:23 51°20.636 2°38.3 278.8 12.6 279 26
2004-08-25 07:38:28 51°20.638 2°38.272 278.6 12.6 278 26.4
2004-08-25 07:38:33 51°20.641 2°38.245 278.7 12.6 280 24.9
2004-08-25 07:38:38 51°20.644 2°38.218 279.3 12.5 280 25.7
2004-08-25 07:38:42 51°20.647 2°38.196 280 12.4 281 26.7
2004-08-25 07:38:49 51°20.652 2°38.159 279.9 12.3 282 26.4
2004-08-25 07:38:54 51°20.655 2°38.132 280.7 12.3 281 25.1
2004-08-25 07:38:58 51°20.657 2°38.111 280 12.3 280 26.1
2004-08-25 07:39:03 51°20.66 2°38.084 279.6 12.4 279 25.8
2004-08-25 07:39:09 51°20.663 2°38.051 279.5 12.4 280 25.7
2004-08-25 07:39:14 51°20.666 2°38.023 279.5 12.5 279 25.2
2004-08-25 07:39:18 51°20.668 2°38.001 279.4 12.6 279 25.7
2004-08-25 07:39:22 51°20.67 2°37.98 278.8 12.4 279 26
2004-08-25 07:39:29 51°20.674 2°37.942 279.2 12.4 281 25.8
2004-08-25 07:39:34 51°20.677 2°37.915 279.2 12.4 281 24.5
2004-08-25 07:39:38 51°20.68 2°37.893 279.8 12.4 282 25.9
2004-08-25 07:39:42 51°20.683 2°37.872 280.6 12.4 280 26.1
2004-08-25 07:39:49 51°20.687 2°37.833 279.7 12.5 280 26.4
2004-08-25 07:39:53 51°20.689 2°37.812 279.4 12.5 279 26.6
2004-08-25 07:39:58 51°20.692 2°37.784 279.1 12.6 279 26.6
2004-08-25 07:40:07 51°20.697 2°37.736 279.3 12.4 280 26.1
2004-08-25 07:40:13 51°20.7 2°37.703 278.9 12.3 279 24.9
2004-08-25 07:40:18 51°20.703 2°37.676 279.5 12.4 280 26.2
2004-08-25 07:40:22 51°20.706 2°37.655 280.1 12.4 280 26.2
2004-08-25 07:40:27 51°20.709 2°37.627 279.9 12.4 280 26.1
2004-08-25 07:40:33 51°20.712 2°37.595 279.3 12.5 279 26.1
2004-08-25 07:40:37 51°20.714 2°37.573 279.1 12.5 281 26.1
2004-08-25 07:40:42 51°20.717 2°37.546 279.9 12.4 280 26.2
2004-08-25 07:40:47 51°20.72 2°37.519 279.3 12.5 279 25.8
2004-08-25 07:40:50 51°20.722 2°37.502 279.4 12.5 281 24.3
2004-08-25 07:40:57 51°20.726 2°37.464 279.5 12.4 279 25.7
2004-08-25 07:41:01 51°20.729 2°37.443 279.5 12.4 281 26.1
2004-08-25 07:41:07 51°20.732 2°37.41 279.8 12.4 279 25.9
2004-08-25 07:41:11 51°20.735 2°37.389 279.5 12.5 280 26.5
2004-08-25 07:41:17 51°20.738 2°37.356 280 12.5 279 26.2
2004-08-25 07:41:23 51°20.742 2°37.323 279.7 12.5 279 25.7
2004-08-25 07:41:26 51°20.743 2°37.307 279.2 12.5 279 25.7
2004-08-25 07:41:33 51°20.747 2°37.268 278.7 12.5 279 26.2
2004-08-25 07:41:37 51°20.749 2°37.246 278.1 12.6 279 25.7
2004-08-25 07:41:42 51°20.751 2°37.218 278.4 12.6 279 25.1
2004-08-25 07:41:46 51°20.754 2°37.196 278.7 12.5 279 25.8
2004-08-25 07:41:53 51°20.758 2°37.158 278.7 12.4 280 25.6
2004-08-25 07:41:57 51°20.761 2°37.137 278.7 12.4 281 25.2
2004-08-25 07:42:03 51°20.764 2°37.104 280.6 12.4 280 24.4
2004-08-25 07:42:06 51°20.766 2°37.088 280.1 12.3 279 24.3
2004-08-25 07:42:11 51°20.769 2°37.061 278.7 12.3 279 25.1
2004-08-25 07:42:17 51°20.772 2°37.028 278.6 12.4 279 24.5
2004-08-25 07:42:22 51°20.775 2°37.001 278.7 12.4 281 24.7
2004-08-25 07:42:26 51°20.778 2°36.979 279.5 12.3 280 24.8
2004-08-25 07:42:33 51°20.782 2°36.941 280.1 12.4 281 23.7
2004-08-25 07:42:37 51°20.784 2°36.92 279.2 12.4 280 24.4
2004-08-25 07:42:41 51°20.787 2°36.898 278.6 12.5 279 24.7
2004-08-25 07:42:46 51°20.79 2°36.871 278.6 12.4 280 24.2
2004-08-25 07:42:51 51°20.793 2°36.844 279.4 12.4 280 23.1
2004-08-25 07:42:57 51°20.797 2°36.811 279.8 12.4 281 24.5
2004-08-25 07:43:02 51°20.8 2°36.784 280 12.4 281 24.8
2004-08-25 07:43:07 51°20.803 2°36.758 280 12.3 281 24.6
2004-08-25 07:43:13 51°20.807 2°36.725 279.9 12.2 281 23.7
2004-08-25 07:43:17 51°20.809 2°36.704 279.2 12.2 280 24.5
2004-08-25 07:43:21 51°20.812 2°36.683 279.3 12.2 279 24.9
2004-08-25 07:43:27 51°20.815 2°36.65 278.7 12.3 280 24
2004-08-25 07:43:32 51°20.818 2°36.624 279.1 12.3 280 24.3
2004-08-25 07:43:37 51°20.821 2°36.597 279.6 12.3 280 25
2004-08-25 07:43:43 51°20.824 2°36.564 279.2 12.3 279 23.8
2004-08-25 07:43:45 51°20.826 2°36.553 279.1 12.5 280 24.5
2004-08-25 07:43:53 51°20.83 2°36.509 278.8 12.5 278 25.4
2004-08-25 07:43:57 51°20.833 2°36.488 278.7 12.5 280 25.4
2004-08-25 07:44:01 51°20.835 2°36.466 279.2 12.5 281 24.7
2004-08-25 07:44:07 51°20.839 2°36.433 280.1 12.5 281 24.9
2004-08-25 07:44:13 51°20.844 2°36.401 280.3 12.5 282 25.6
2004-08-25 07:44:17 51°20.846 2°36.379 280 12.4 280 24.8
2004-08-25 07:44:20 51°20.848 2°36.363 278.9 12.3 281 25.4
2004-08-25 07:44:25 51°20.851 2°36.336 279.2 12.1 282 25.5
2004-08-25 07:44:32 51°20.856 2°36.3 280.1 12 281 26.3
2004-08-25 07:44:37 51°20.859 2°36.273 279.9 12.1 280 26.6
2004-08-25 07:44:47 51°20.865 2°36.22 279.1 12.3 281 26.6
2004-08-25 07:44:53 51°20.869 2°36.188 279.2 12.3 282 25.2
2004-08-25 07:44:57 51°20.872 2°36.166 280.1 12.4 281 27.1
2004-08-25 07:45:01 51°20.874 2°36.145 279.7 12.4 279 27.8
2004-08-25 07:45:06 51°20.877 2°36.118 278.9 12.3 280 27.9
2004-08-25 07:45:13 51°20.881 2°36.08 278.5 12.3 281 26.8
2004-08-25 07:45:17 51°20.884 2°36.058 278.8 12.4 280 27
2004-08-25 07:45:23 51°20.888 2°36.026 279.1 12.3 281 28.2
2004-08-25 07:45:25 51°20.889 2°36.015 279.2 12.3 281 28.6
2004-08-25 07:45:33 51°20.894 2°35.973 279.6 12.3 281 29.2
2004-08-25 07:45:37 51°20.897 2°35.951 279.3 12.4 280 29.4
2004-08-25 07:45:42 51°20.899 2°35.924 278.9 12.4 280 29
2004-08-25 07:45:47 51°20.902 2°35.897 278.9 12.4 281 28.2
2004-08-25 07:45:53 51°20.906 2°35.864 278.7 12.5 280 28.6
2004-08-25 07:45:57 51°20.909 2°35.842 279 12.5 280 28.4
2004-08-25 07:46:02 51°20.912 2°35.815 279 12.5 280 28.9
2004-08-25 07:46:06 51°20.914 2°35.793 279.2 12.5 281 29.9
2004-08-25 07:46:13 51°20.919 2°35.755 279.5 12.6 281 30.3
2004-08-25 07:46:17 51°20.922 2°35.733 279.7 12.5 281 29.4
2004-08-25 07:46:22 51°20.925 2°35.706 279.6 12.5 280 29.9
2004-08-25 07:46:27 51°20.928 2°35.679 278.8 12.5 281 29.6
2004-08-25 07:46:33 51°20.933 2°35.647 279.4 12.3 282 30.4
2004-08-25 07:46:38 51°20.936 2°35.62 280 12.4 281 32
2004-08-25 07:46:42 51°20.939 2°35.598 279.4 12.5 282 32.6
2004-08-25 07:46:46 51°20.941 2°35.576 279.7 12.5 281 32.6
2004-08-25 07:46:52 51°20.946 2°35.544 279.4 12.4 281 33.1
2004-08-25 07:46:58 51°20.95 2°35.512 279.5 12.4 282 33.2
2004-08-25 07:47:01 51°20.952 2°35.496 279.6 12.4 282 33.3
2004-08-25 07:47:06 51°20.955 2°35.469 279.6 12.4 282 33.3
2004-08-25 07:47:13 51°20.961 2°35.432 279.6 12.5 282 32.8
2004-08-25 07:47:17 51°20.964 2°35.41 280.4 12.4 281 32.7
2004-08-25 07:47:23 51°20.968 2°35.378 280 12.4 283 29.7
2004-08-25 07:47:27 51°20.971 2°35.356 279.9 12.4 282 28.1
2004-08-25 07:47:33 51°20.976 2°35.324 280.1 12.4 282 29.7
2004-08-25 07:47:38 51°20.979 2°35.297 279.8 12.5 281 30.8
2004-08-25 07:47:42 51°20.982 2°35.275 279.4 12.5 283 32.1
2004-08-25 07:47:46 51°20.985 2°35.253 279.4 12.4 282 33.2
2004-08-25 07:47:52 51°20.989 2°35.221 279.9 12.4 282 33.1
2004-08-25 07:47:57 51°20.993 2°35.194 279.5 12.5 282 33.3
2004-08-25 07:48:01 51°20.996 2°35.172 280 12.5 283 33.9
2004-08-25 07:48:10 51°21.003 2°35.124 279.2 12.5 281 34.2
2004-08-25 07:48:17 51°21.007 2°35.086 278.9 12.6 282 33.7
2004-08-25 07:48:21 51°21.011 2°35.064 279.4 12.4 283 33.9
2004-08-25 07:48:26 51°21.014 2°35.037 279.4 12.4 281 34.2
2004-08-25 07:48:30 51°21.017 2°35.016 279 12.5 283 34.3
2004-08-25 07:48:37 51°21.022 2°34.979 278.8 12.4 282 34.2
2004-08-25 07:48:41 51°21.025 2°34.958 279 12.3 282 34.4
2004-08-25 07:48:46 51°21.028 2°34.931 278.9 12.4 282 34.1
2004-08-25 07:48:50 51°21.03 2°34.909 278.4 12.2 280 33.6
2004-08-25 07:48:55 51°21.034 2°34.883 278 12.2 283 34.1
2004-08-25 07:49:02 51°21.039 2°34.846 278.4 12.3 281 33.8